KBIE/BIE METAR and TAF weather

Enter ICAO airport designator
Station Type Date Time Source
KBIE METAR 2022/01/27 22:35 UTC NOAA

KBIE 272235Z AUTO 31012KT 10SM SCT060 BKN085 06/M07 A3030 RMK AO2 T00551071


Station Type Date Time Source
KBIE Decoded METAR 2022/01/27 22:35 UTC NOAA

Beatrice Municipal, NE, United States (KBIE) 40-18N 096-45W
Jan 27, 2022 - 05:35 PM EST / 2022.01.27 2235 UTC
Wind: from the NW (310 degrees) at 14 MPH (12 KT):0
Visibility: 10 mile(s):0
Sky conditions: mostly cloudy
Temperature: 41.9 F (5.5 C)
Dew Point: 19.2 F (-7.1 C)
Relative Humidity: 39%
Pressure (altimeter): 30.3 in. Hg (1026 hPa)
ob: KBIE 272235Z AUTO 31012KT 10SM SCT060 BKN085 06/M07 A3030 RMK AO2 T00551071
cycle: 22

Station Type Date Time Source
KBIE TAF UTC NOAA

Error!

Example: see airport list